createdAt,value
2018-08-23T00:01:37.438Z,6.87
2018-08-23T00:04:10.488Z,12.90
2018-08-23T00:06:58.644Z,7.87
2018-08-23T00:09:27.226Z,11.03
2018-08-23T00:11:56.447Z,9.40
2018-08-23T00:14:25.409Z,13.50
2018-08-23T00:16:54.396Z,10.40
2018-08-23T00:19:23.439Z,10.67
2018-08-23T00:21:52.278Z,9.67
2018-08-23T00:24:24.597Z,10.23
2018-08-23T00:26:54.728Z,7.73
2018-08-23T00:29:38.675Z,8.00
2018-08-23T00:32:08.281Z,8.37
2018-08-23T00:34:38.253Z,7.50
2018-08-23T00:37:07.857Z,8.40
2018-08-23T00:39:36.470Z,8.27
2018-08-23T00:42:09.390Z,11.00
2018-08-23T00:44:58.838Z,10.47
2018-08-23T00:47:31.105Z,8.47
2018-08-23T00:50:00.167Z,8.90
2018-08-23T00:52:40.978Z,7.17
2018-08-23T00:55:18.139Z,13.10
2018-08-23T00:57:47.562Z,9.80
2018-08-23T01:00:18.629Z,10.07
2018-08-23T01:02:49.462Z,9.63
2018-08-23T01:05:23.379Z,7.93
2018-08-23T01:07:52.502Z,9.00
2018-08-23T01:10:21.005Z,7.93
2018-08-23T01:12:55.513Z,11.13
2018-08-23T01:15:24.034Z,8.17
2018-08-23T01:18:07.420Z,9.77
2018-08-23T01:20:35.940Z,10.50
2018-08-23T01:23:04.642Z,9.63
2018-08-23T01:25:36.375Z,8.93
2018-08-23T01:28:06.414Z,9.07
2018-08-23T01:30:35.481Z,10.00
2018-08-23T01:33:04.153Z,8.37
2018-08-23T01:35:32.696Z,8.80
2018-08-23T01:38:01.242Z,11.60
2018-08-23T01:40:29.779Z,11.83
2018-08-23T01:42:58.291Z,16.37
2018-08-23T01:45:26.830Z,8.90
2018-08-23T01:47:56.207Z,9.00
2018-08-23T01:50:25.558Z,10.60
2018-08-23T01:52:55.340Z,10.07
2018-08-23T01:55:24.700Z,8.37
2018-08-23T01:57:53.739Z,10.60
2018-08-23T02:00:23.790Z,8.10
2018-08-23T02:02:52.358Z,9.47
2018-08-23T02:05:20.917Z,11.00
2018-08-23T02:07:49.479Z,9.90
2018-08-23T02:10:18.062Z,12.17
2018-08-23T02:12:53.862Z,8.50
2018-08-23T02:15:22.682Z,11.10
2018-08-23T02:17:53.868Z,10.13
2018-08-23T02:20:23.425Z,13.23
2018-08-23T02:22:52.448Z,12.40
2018-08-23T02:25:20.963Z,9.20
2018-08-23T02:28:09.268Z,11.00
2018-08-23T02:30:53.086Z,9.20
2018-08-23T02:33:21.665Z,11.33
2018-08-23T02:36:22.485Z,9.27
2018-08-23T02:39:08.800Z,10.90
2018-08-23T02:41:37.411Z,12.20
2018-08-23T02:44:05.981Z,12.00
2018-08-23T02:46:34.471Z,12.17
2018-08-23T02:49:03.047Z,11.70
2018-08-23T02:51:38.704Z,15.27
2018-08-23T02:54:11.086Z,9.00
2018-08-23T02:56:39.803Z,9.53
2018-08-23T02:59:08.866Z,13.13
2018-08-23T03:01:41.749Z,8.60
2018-08-23T03:04:15.818Z,23.33
2018-08-23T03:06:51.523Z,14.83
2018-08-23T03:09:24.865Z,11.37
2018-08-23T03:11:55.627Z,9.73
2018-08-23T03:14:25.161Z,10.63
2018-08-23T03:17:28.415Z,9.27
2018-08-23T03:20:01.021Z,8.80
2018-08-23T03:22:30.491Z,10.47
2018-08-23T03:25:01.064Z,8.93
2018-08-23T03:27:30.542Z,9.73
2018-08-23T03:29:59.463Z,14.73
2018-08-23T03:32:28.307Z,9.17
2018-08-23T03:34:57.442Z,13.33
2018-08-23T03:37:25.991Z,8.10
2018-08-23T03:39:54.511Z,9.57
2018-08-23T03:42:24.338Z,9.70
2018-08-23T03:44:54.138Z,9.97
2018-08-23T03:47:23.132Z,15.20
2018-08-23T03:49:52.028Z,12.10
2018-08-23T03:52:22.048Z,12.20
2018-08-23T03:54:56.605Z,8.80
2018-08-23T03:57:29.342Z,9.53
2018-08-23T03:59:57.966Z,9.83
2018-08-23T04:02:26.606Z,10.80
2018-08-23T04:05:09.183Z,9.33
2018-08-23T04:07:39.198Z,11.87
2018-08-23T04:10:07.783Z,11.60
2018-08-23T04:12:39.482Z,9.47
2018-08-23T04:15:23.546Z,9.83
2018-08-23T04:17:52.318Z,11.97
2018-08-23T04:20:20.866Z,10.93
2018-08-23T04:22:49.534Z,10.27
2018-08-23T04:25:18.239Z,15.60
2018-08-23T04:27:46.907Z,10.97
2018-08-23T04:30:15.598Z,10.40
2018-08-23T04:32:46.595Z,16.00
2018-08-23T04:35:21.124Z,11.00
2018-08-23T04:37:50.339Z,9.90
2018-08-23T04:40:19.171Z,11.07
2018-08-23T04:42:47.716Z,11.60
2018-08-23T04:45:19.508Z,9.33
2018-08-23T04:47:53.760Z,10.80
2018-08-23T04:50:23.760Z,10.13
2018-08-23T04:52:52.290Z,9.83
2018-08-23T04:55:20.842Z,21.93
2018-08-23T04:57:49.343Z,14.67
2018-08-23T05:00:18.051Z,12.00
2018-08-23T05:02:46.586Z,12.40
2018-08-23T05:05:15.087Z,12.03
2018-08-23T05:07:44.647Z,10.80
2018-08-23T05:10:13.219Z,10.93
2018-08-23T05:12:41.713Z,10.70
2018-08-23T05:15:10.255Z,12.33
2018-08-23T05:17:38.837Z,13.20
2018-08-23T05:20:07.651Z,11.60
2018-08-23T05:22:36.232Z,12.07
2018-08-23T05:25:13.348Z,11.40
2018-08-23T05:27:58.520Z,22.43
2018-08-23T05:30:28.535Z,12.37
2018-08-23T05:33:02.651Z,13.70
2018-08-23T05:35:31.855Z,14.07
2018-08-23T05:38:01.160Z,20.40
2018-08-23T05:40:34.186Z,17.43
2018-08-23T05:43:02.760Z,16.37
2018-08-23T05:45:36.521Z,14.80
2018-08-23T05:48:15.652Z,16.40
2018-08-23T05:50:44.633Z,19.23
2018-08-23T05:53:14.995Z,18.47
2018-08-23T05:55:43.675Z,14.13
2018-08-23T05:58:27.763Z,14.67
2018-08-23T06:00:56.251Z,11.73
2018-08-23T06:03:24.804Z,20.10
2018-08-23T06:05:53.771Z,20.23
2018-08-23T06:08:22.413Z,14.03
2018-08-23T06:10:53.457Z,14.57
2018-08-23T06:13:21.983Z,13.20
2018-08-23T06:15:54.814Z,12.23
2018-08-23T06:18:23.936Z,19.63
2018-08-23T06:20:52.841Z,22.70
2018-08-23T06:23:21.761Z,18.03
2018-08-23T06:25:50.639Z,16.00
2018-08-23T06:28:24.801Z,16.90
2018-08-23T06:30:58.652Z,21.93
2018-08-23T06:33:39.084Z,16.27
2018-08-23T06:36:09.128Z,19.80
2018-08-23T06:38:38.676Z,20.27
2018-08-23T06:41:08.375Z,24.33
2018-08-23T06:43:36.895Z,28.67
2018-08-23T06:46:05.960Z,26.00
2018-08-23T06:48:34.429Z,20.53
2018-08-23T06:51:04.151Z,17.73
2018-08-23T06:53:43.300Z,23.00
2018-08-23T06:56:11.883Z,14.60
2018-08-23T06:58:40.484Z,16.50
2018-08-23T07:01:14.147Z,15.67
2018-08-23T07:03:51.175Z,25.37
2018-08-23T07:06:20.256Z,20.70
2018-08-23T07:08:48.806Z,19.80
2018-08-23T07:11:21.221Z,19.63
2018-08-23T07:13:56.360Z,17.70
2018-08-23T07:16:25.238Z,26.17
2018-08-23T07:18:53.797Z,20.33
2018-08-23T07:21:23.649Z,20.23
2018-08-23T07:23:52.251Z,15.03
2018-08-23T07:26:20.846Z,26.47
2018-08-23T07:28:49.319Z,17.47
2018-08-23T07:31:17.833Z,20.10
2018-08-23T07:33:50.655Z,16.90
2018-08-23T07:36:30.027Z,12.60
2018-08-23T07:38:58.900Z,17.77
2018-08-23T07:41:27.728Z,18.53
2018-08-23T07:43:58.379Z,25.83
2018-08-23T07:46:26.900Z,15.07
2018-08-23T07:48:56.115Z,16.90
2018-08-23T07:51:25.638Z,13.13
2018-08-23T07:53:57.354Z,18.10
2018-08-23T07:56:27.348Z,26.07
2018-08-23T07:58:57.173Z,23.53
2018-08-23T08:01:28.549Z,13.53
2018-08-23T08:03:58.231Z,23.00
2018-08-23T08:06:27.595Z,21.93
2018-08-23T08:09:00.852Z,22.63
2018-08-23T08:11:39.423Z,34.37
2018-08-23T08:14:14.039Z,18.00
2018-08-23T08:16:42.571Z,29.90
2018-08-23T08:19:11.760Z,13.97
2018-08-23T08:21:40.369Z,21.90
2018-08-23T08:24:08.986Z,17.33
2018-08-23T08:26:37.589Z,17.13
2018-08-23T08:29:06.690Z,18.40
2018-08-23T08:31:35.221Z,15.07
2018-08-23T08:34:03.847Z,18.63
2018-08-23T08:36:33.437Z,17.87
2018-08-23T08:39:03.448Z,23.43
2018-08-23T08:41:37.251Z,21.20
2018-08-23T08:44:05.770Z,20.40
2018-08-23T08:46:34.394Z,19.47
2018-08-23T08:49:02.892Z,15.23
2018-08-23T08:51:32.786Z,18.62
2018-08-23T08:54:02.941Z,17.67
2018-08-23T08:56:36.839Z,13.77
2018-08-23T08:59:05.551Z,11.33
2018-08-23T09:01:34.072Z,14.13
2018-08-23T09:04:02.643Z,12.17
2018-08-23T09:06:36.494Z,16.33
2018-08-23T09:09:21.150Z,17.50
2018-08-23T09:11:49.891Z,15.10
2018-08-23T09:14:18.450Z,17.00
2018-08-23T09:16:46.975Z,20.13
2018-08-23T09:19:15.622Z,16.00
2018-08-23T09:21:45.080Z,11.07
2018-08-23T09:24:25.932Z,9.10
2018-08-23T09:26:54.757Z,14.00
2018-08-23T09:29:35.019Z,9.23
2018-08-23T09:32:12.471Z,10.83
2018-08-23T09:34:41.665Z,15.77
2018-08-23T09:37:10.490Z,16.20
2018-08-23T09:39:39.772Z,19.70
2018-08-23T09:42:08.611Z,9.10
2018-08-23T09:45:40.708Z,14.30
2018-08-23T09:48:09.553Z,11.40
2018-08-23T09:50:38.075Z,10.03
2018-08-23T09:53:25.392Z,12.10
2018-08-23T09:55:55.758Z,10.77
2018-08-23T09:58:29.818Z,14.80
2018-08-23T10:01:04.035Z,23.27
2018-08-23T10:03:37.816Z,12.63
2018-08-23T10:06:11.891Z,9.40
2018-08-23T10:08:45.694Z,17.17
2018-08-23T10:11:20.345Z,9.30
2018-08-23T10:13:54.246Z,9.47
2018-08-23T10:16:28.133Z,11.23
2018-08-23T10:19:00.517Z,8.33
2018-08-23T10:21:34.590Z,7.33
2018-08-23T10:24:16.888Z,11.63
2018-08-23T10:26:45.947Z,12.63
2018-08-23T10:29:14.703Z,9.80
2018-08-23T10:31:43.536Z,11.43
2018-08-23T10:34:12.018Z,5.90
2018-08-23T10:36:40.561Z,11.00
2018-08-23T10:39:11.023Z,7.90
2018-08-23T10:41:39.598Z,8.20
2018-08-23T10:44:08.154Z,13.80
2018-08-23T10:46:42.864Z,7.47
2018-08-23T10:49:11.371Z,8.17
2018-08-23T10:51:39.920Z,7.23
2018-08-23T10:54:08.410Z,8.50
2018-08-23T10:56:36.930Z,9.83
2018-08-23T10:59:06.815Z,12.00
2018-08-23T11:01:35.267Z,17.50
2018-08-23T11:04:05.603Z,9.40
2018-08-23T11:06:34.754Z,9.03
2018-08-23T11:09:08.781Z,13.90
2018-08-23T11:11:38.456Z,8.50
2018-08-23T11:14:12.315Z,7.90
2018-08-23T11:16:46.227Z,14.20
2018-08-23T11:19:20.043Z,8.90
2018-08-23T11:21:48.614Z,5.53
2018-08-23T11:24:17.168Z,8.33
2018-08-23T11:26:45.729Z,8.07
2018-08-23T11:29:14.268Z,10.47
2018-08-23T11:31:42.998Z,5.90
2018-08-23T11:34:11.515Z,9.23
2018-08-23T11:36:40.339Z,6.23
2018-08-23T11:39:09.513Z,19.30
2018-08-23T11:41:38.047Z,4.73
2018-08-23T11:44:06.653Z,4.87
2018-08-23T11:46:35.240Z,6.70
2018-08-23T11:49:03.779Z,10.73
2018-08-23T11:51:32.447Z,12.67
2018-08-23T11:54:01.098Z,4.53
2018-08-23T11:56:29.600Z,5.07
2018-08-23T11:58:58.403Z,5.43
2018-08-23T12:01:27.032Z,4.50
2018-08-23T12:03:55.549Z,9.30
2018-08-23T12:06:24.219Z,5.60
2018-08-23T12:08:53.290Z,4.20
2018-08-23T12:11:21.840Z,5.70
2018-08-23T12:13:51.178Z,8.90
2018-08-23T12:16:20.041Z,10.43
2018-08-23T12:18:48.946Z,16.93
2018-08-23T12:21:17.471Z,11.97
2018-08-23T12:23:46.210Z,7.20
2018-08-23T12:26:14.792Z,9.67
2018-08-23T12:28:48.444Z,8.00
2018-08-23T12:31:17.672Z,8.73
2018-08-23T12:33:46.265Z,8.67
2018-08-23T12:36:19.020Z,4.33
2018-08-23T12:38:52.998Z,4.80
2018-08-23T12:41:26.887Z,9.03
2018-08-23T12:43:56.645Z,8.23
2018-08-23T12:46:25.150Z,7.37
2018-08-23T12:48:58.710Z,9.30
2018-08-23T12:51:27.225Z,6.80
2018-08-23T12:53:55.884Z,4.40
2018-08-23T12:56:24.525Z,9.33
2018-08-23T12:58:53.271Z,5.23
2018-08-23T13:01:21.859Z,4.00
2018-08-23T13:03:50.698Z,5.90
2018-08-23T13:06:19.953Z,7.00
2018-08-23T13:08:48.631Z,5.83
2018-08-23T13:11:17.323Z,6.13
2018-08-23T13:13:46.105Z,7.47
2018-08-23T13:16:14.716Z,7.97
2018-08-23T13:18:43.497Z,6.70
2018-08-23T13:21:12.031Z,5.47
2018-08-23T13:23:44.869Z,4.70
2018-08-23T13:26:13.547Z,5.70
2018-08-23T13:28:42.262Z,5.37
2018-08-23T13:31:10.796Z,5.70
2018-08-23T13:33:39.385Z,10.97
2018-08-23T13:36:08.579Z,5.20
2018-08-23T13:38:37.405Z,4.30
2018-08-23T13:41:06.001Z,4.60
2018-08-23T13:43:35.193Z,6.97
2018-08-23T13:46:04.371Z,5.80
2018-08-23T13:48:33.915Z,7.63
2018-08-23T13:51:02.502Z,5.17
2018-08-23T13:53:31.072Z,8.40
2018-08-23T13:55:59.827Z,4.27
2018-08-23T13:58:28.391Z,6.30
2018-08-23T14:00:57.151Z,6.13
2018-08-23T14:03:25.650Z,9.97
2018-08-23T14:05:54.352Z,8.33
2018-08-23T14:08:23.016Z,4.37
2018-08-23T14:10:51.592Z,11.60
2018-08-23T14:13:20.200Z,6.67
2018-08-23T14:15:53.937Z,5.70
2018-08-23T14:18:22.561Z,7.20
2018-08-23T14:20:51.072Z,4.07
2018-08-23T14:23:19.668Z,8.70
2018-08-23T14:25:48.228Z,4.27
2018-08-23T14:28:16.787Z,4.70
2018-08-23T14:30:45.465Z,4.57
2018-08-23T14:33:14.033Z,4.63
2018-08-23T14:35:42.528Z,7.40
2018-08-23T14:38:11.070Z,7.60
2018-08-23T14:40:39.591Z,8.97
2018-08-23T14:43:08.122Z,6.83
2018-08-23T14:45:36.673Z,6.23
2018-08-23T14:48:10.634Z,8.03
2018-08-23T14:50:39.200Z,10.17
2018-08-23T14:53:07.796Z,6.30
2018-08-23T14:55:41.567Z,6.00
2018-08-23T14:58:11.401Z,7.10
2018-08-23T15:00:40.075Z,4.87
2018-08-23T15:03:08.600Z,5.77
2018-08-23T15:05:37.143Z,6.60
2018-08-23T15:08:05.759Z,8.03
2018-08-23T15:10:34.290Z,7.53
2018-08-23T15:13:02.931Z,5.03
2018-08-23T15:15:36.744Z,7.37
2018-08-23T15:18:05.434Z,5.40
2018-08-23T15:20:33.978Z,8.53
2018-08-23T15:23:02.801Z,9.97
2018-08-23T15:25:31.375Z,11.37
2018-08-23T15:28:00.186Z,7.90
2018-08-23T15:30:28.856Z,11.00
2018-08-23T15:32:57.485Z,9.90
2018-08-23T15:35:27.211Z,7.30
2018-08-23T15:37:55.801Z,8.77
2018-08-23T15:40:24.388Z,18.93
2018-08-23T15:42:53.008Z,47.20
2018-08-23T15:45:21.772Z,59.67
2018-08-23T15:47:50.759Z,42.03
2018-08-23T15:50:22.203Z,24.27
2018-08-23T15:52:51.374Z,29.73
2018-08-23T15:55:20.915Z,22.03
2018-08-23T15:57:49.371Z,41.47
2018-08-23T16:00:18.216Z,24.30
2018-08-23T16:02:47.722Z,13.27
2018-08-23T16:05:16.361Z,18.33
2018-08-23T16:07:44.978Z,8.33
2018-08-23T16:10:14.629Z,17.73
2018-08-23T16:12:43.287Z,8.87
2018-08-23T16:15:17.187Z,9.53
2018-08-23T16:17:51.129Z,15.63
2018-08-23T16:20:25.096Z,11.70
2018-08-23T16:22:53.655Z,12.03
2018-08-23T16:25:22.197Z,17.73
2018-08-23T16:27:51.087Z,17.53
2018-08-23T16:30:19.751Z,10.23
2018-08-23T16:32:48.528Z,18.43
2018-08-23T16:35:17.100Z,7.47
2018-08-23T16:37:45.683Z,7.23
2018-08-23T16:40:19.606Z,9.53
2018-08-23T16:42:48.184Z,7.93
2018-08-23T16:45:17.222Z,16.53
2018-08-23T16:47:45.785Z,11.53
2018-08-23T16:50:14.347Z,8.53
2018-08-23T16:52:43.064Z,10.30
2018-08-23T16:55:11.603Z,11.17
2018-08-23T16:57:40.215Z,6.33
2018-08-23T17:00:09.315Z,9.63
2018-08-23T17:02:39.518Z,7.77
2018-08-23T17:05:09.188Z,12.17
2018-08-23T17:07:38.650Z,7.27
2018-08-23T17:10:08.712Z,7.80
2018-08-23T17:12:37.231Z,6.73
2018-08-23T17:15:12.188Z,7.03
2018-08-23T17:17:44.223Z,7.20
2018-08-23T17:20:13.981Z,6.70
2018-08-23T17:22:42.567Z,6.80
2018-08-23T17:25:11.213Z,5.70
2018-08-23T17:27:41.195Z,5.33
2018-08-23T17:30:11.186Z,8.50
2018-08-23T17:32:40.178Z,5.43
2018-08-23T17:35:08.820Z,4.40
2018-08-23T17:37:37.361Z,8.60
2018-08-23T17:40:06.240Z,7.60
2018-08-23T17:42:40.053Z,7.43
2018-08-23T17:45:09.955Z,7.07
2018-08-23T17:47:39.845Z,7.80
2018-08-23T17:50:08.417Z,10.33
2018-08-23T17:52:37.006Z,9.80
2018-08-23T17:55:05.820Z,8.47
2018-08-23T17:57:34.364Z,7.50
2018-08-23T18:00:03.103Z,11.73
2018-08-23T18:02:31.625Z,8.60
2018-08-23T18:05:01.407Z,11.63
2018-08-23T18:07:30.041Z,16.60
2018-08-23T18:09:58.544Z,9.20
2018-08-23T18:12:27.043Z,7.20
2018-08-23T18:14:55.583Z,12.13
2018-08-23T18:17:24.995Z,14.73
2018-08-23T18:19:53.763Z,16.90
2018-08-23T18:22:22.523Z,6.83
2018-08-23T18:24:51.185Z,9.13
2018-08-23T18:27:19.741Z,8.23
2018-08-23T18:29:48.579Z,7.93
2018-08-23T18:32:17.174Z,8.17
2018-08-23T18:34:45.684Z,15.40
2018-08-23T18:37:14.923Z,7.50
2018-08-23T18:39:43.658Z,9.40
2018-08-23T18:42:13.798Z,8.40
2018-08-23T18:44:44.077Z,10.83
2018-08-23T18:47:13.072Z,7.53
2018-08-23T18:49:41.580Z,12.33
2018-08-23T18:52:10.192Z,8.70
2018-08-23T18:54:38.849Z,7.30
2018-08-23T18:57:09.665Z,8.30
2018-08-23T18:59:38.652Z,7.00
2018-08-23T19:02:07.209Z,9.00
2018-08-23T19:04:35.734Z,8.80
2018-08-23T19:07:06.455Z,9.97
2018-08-23T19:09:35.056Z,10.53
2018-08-23T19:12:05.528Z,7.70
2018-08-23T19:14:36.203Z,9.73
2018-08-23T19:17:11.901Z,6.07
2018-08-23T19:19:40.482Z,10.60
2018-08-23T19:22:09.759Z,7.47
2018-08-23T19:24:39.068Z,7.43
2018-08-23T19:27:07.640Z,10.07
2018-08-23T19:29:37.323Z,6.73
2018-08-23T19:32:07.171Z,11.90
2018-08-23T19:34:36.690Z,9.23
2018-08-23T19:37:05.268Z,10.73
2018-08-23T19:39:33.889Z,10.03
2018-08-23T19:42:03.353Z,14.67
2018-08-23T19:44:32.295Z,7.47
2018-08-23T19:47:06.173Z,7.10
2018-08-23T19:49:42.039Z,10.23
2018-08-23T19:52:10.670Z,6.97
2018-08-23T19:54:39.909Z,13.90
2018-08-23T19:57:08.433Z,16.60
2018-08-23T19:59:37.220Z,12.13
2018-08-23T20:02:05.851Z,9.20
2018-08-23T20:04:34.361Z,12.10
2018-08-23T20:07:02.839Z,12.20
2018-08-23T20:09:31.648Z,10.20
2018-08-23T20:12:00.176Z,14.13
2018-08-23T20:14:28.967Z,12.67
2018-08-23T20:16:57.536Z,9.00
2018-08-23T20:19:26.058Z,8.50
2018-08-23T20:21:54.599Z,7.57
2018-08-23T20:24:25.081Z,9.90
2018-08-23T20:26:53.940Z,11.50
2018-08-23T20:29:23.122Z,9.63
2018-08-23T20:31:51.735Z,9.50
2018-08-23T20:34:20.303Z,14.33
2018-08-23T20:36:49.284Z,9.53
2018-08-23T20:39:18.514Z,7.13
2018-08-23T20:41:47.648Z,11.10
2018-08-23T20:44:16.147Z,11.10
2018-08-23T20:46:44.708Z,7.33
2018-08-23T20:49:13.238Z,6.87
2018-08-23T20:51:41.815Z,9.33
2018-08-23T20:54:10.368Z,12.37
2018-08-23T20:56:38.939Z,6.07
2018-08-23T20:59:08.025Z,8.83
2018-08-23T21:01:36.580Z,7.03
2018-08-23T21:04:05.389Z,8.53
2018-08-23T21:06:33.995Z,6.63
2018-08-23T21:09:02.524Z,9.87
2018-08-23T21:11:31.251Z,10.63
2018-08-23T21:13:59.997Z,9.20
2018-08-23T21:16:28.498Z,8.93
2018-08-23T21:18:57.063Z,12.40
2018-08-23T21:21:25.628Z,5.60
2018-08-23T21:23:54.142Z,7.23
2018-08-23T21:26:22.733Z,7.10
2018-08-23T21:28:51.723Z,7.30
2018-08-23T21:31:20.264Z,9.20
2018-08-23T21:33:48.795Z,11.40
2018-08-23T21:36:17.443Z,7.03
2018-08-23T21:38:46.654Z,5.93
2018-08-23T21:41:15.187Z,8.83
2018-08-23T21:43:43.742Z,9.70
2018-08-23T21:46:12.222Z,7.47
2018-08-23T21:48:40.921Z,10.60
2018-08-23T21:51:09.530Z,8.50
2018-08-23T21:53:38.247Z,19.10
2018-08-23T21:56:07.448Z,10.93
2018-08-23T21:58:35.999Z,7.60
2018-08-23T22:01:05.855Z,6.90
2018-08-23T22:03:34.572Z,6.90
2018-08-23T22:06:03.324Z,10.10
2018-08-23T22:08:32.422Z,12.40
2018-08-23T22:11:00.936Z,9.53
2018-08-23T22:13:29.994Z,9.57
2018-08-23T22:15:58.584Z,10.17
2018-08-23T22:18:27.100Z,12.37
2018-08-23T22:20:56.593Z,7.70
2018-08-23T22:23:25.159Z,7.57
2018-08-23T22:25:53.670Z,8.07
2018-08-23T22:28:22.211Z,9.63
2018-08-23T22:30:50.696Z,8.03
2018-08-23T22:33:19.988Z,8.63
2018-08-23T22:35:48.685Z,7.73
2018-08-23T22:38:17.205Z,7.53
2018-08-23T22:40:45.686Z,9.13
2018-08-23T22:43:14.259Z,7.97
2018-08-23T22:45:42.887Z,6.57
2018-08-23T22:48:12.722Z,7.47
2018-08-23T22:50:41.223Z,7.20
2018-08-23T22:53:09.741Z,7.40
2018-08-23T22:55:38.236Z,7.27
2018-08-23T22:58:07.388Z,9.87
2018-08-23T23:00:40.459Z,10.07
2018-08-23T23:03:14.399Z,10.67
2018-08-23T23:05:43.714Z,8.70
2018-08-23T23:08:12.208Z,10.53
2018-08-23T23:10:41.015Z,6.83
2018-08-23T23:13:09.582Z,7.50
2018-08-23T23:15:38.077Z,7.93
2018-08-23T23:18:06.609Z,9.37
2018-08-23T23:20:35.144Z,9.33
2018-08-23T23:23:03.751Z,8.53
2018-08-23T23:25:32.307Z,8.20
2018-08-23T23:28:00.835Z,6.97
2018-08-23T23:30:29.352Z,10.37
2018-08-23T23:32:57.852Z,14.43
2018-08-23T23:35:26.567Z,7.80
2018-08-23T23:37:55.101Z,12.13
2018-08-23T23:40:23.596Z,7.90
2018-08-23T23:42:52.238Z,9.27
2018-08-23T23:45:20.748Z,11.93
2018-08-23T23:47:49.380Z,10.13
2018-08-23T23:50:17.886Z,14.00
2018-08-23T23:52:52.699Z,8.50
2018-08-23T23:55:21.381Z,7.73
2018-08-23T23:57:49.901Z,8.07
